Time;durP1;ratioP1;P1;durP2;ratioP2;P2;SDS_P1;SDS_P2;PMS_P1;PMS_P2;Temp;Humidity;BMP_temperature;BMP_pressure;BME280_temperature;BME280_humidity;BME280_pressure;Samples;Min_cycle;Max_cycle;Signal;HPM_P1;HPM_P2
2022/09/11 00:01:11;;;;;;;25.45;17.98;;;16.30;99.90;;;;;;5029666;28;20423;-58
2022/09/11 00:03:36;;;;;;;26.08;19.15;;;16.40;99.90;;;;;;5017875;28;20026;-58
2022/09/11 00:06:05;;;;;;;25.50;18.77;;;16.40;99.90;;;;;;5020644;28;20052;-58
2022/09/11 00:08:31;;;;;;;26.35;18.60;;;16.40;99.90;;;;;;5026183;28;20056;-59
2022/09/11 00:11:27;;;;;;;23.42;18.63;;;16.30;99.90;;;;;;5024734;28;20735;-58
2022/09/11 00:13:53;;;;;;;26.50;19.58;;;16.20;99.90;;;;;;5021807;28;20053;-59
2022/09/11 00:16:38;;;;;;;26.60;20.27;;;16.20;99.90;;;;;;5019633;28;20037;-58
2022/09/11 00:19:18;;;;;;;30.13;19.83;;;16.30;99.90;;;;;;5020295;28;20559;-58
2022/09/11 00:21:44;;;;;;;22.65;18.80;;;16.20;99.90;;;;;;5020914;28;20389;-58
2022/09/11 00:24:10;;;;;;;24.05;18.45;;;16.10;99.90;;;;;;5023089;28;20036;-58
2022/09/11 00:26:37;;;;;;;23.27;18.25;;;16.10;99.90;;;;;;5018353;28;20044;-59
2022/09/11 00:29:03;;;;;;;26.05;19.27;;;16.10;99.90;;;;;;5021911;28;20130;-58
2022/09/11 00:31:31;;;;;;;25.48;19.65;;;16.00;99.90;;;;;;5022883;28;20691;-58
2022/09/11 00:33:57;;;;;;;21.77;16.95;;;16.00;99.90;;;;;;5018504;28;20611;-58
2022/09/11 00:36:25;;;;;;;20.65;16.38;;;15.90;99.90;;;;;;5023173;28;20034;-59
2022/09/11 00:38:51;;;;;;;23.85;17.38;;;15.90;99.90;;;;;;5022276;28;20041;-59
2022/09/11 00:41:23;;;;;;;23.65;18.30;;;15.90;99.90;;;;;;5001341;28;20099;-59
2022/09/11 00:44:01;;;;;;;26.65;19.15;;;15.80;99.90;;;;;;5018938;28;20041;-58
2022/09/11 00:46:54;;;;;;;23.42;18.63;;;15.80;99.90;;;;;;5011530;28;20112;-59
2022/09/11 00:49:31;;;;;;;23.43;18.10;;;15.80;99.90;;;;;;5007587;28;20142;-58
2022/09/11 00:52:09;;;;;;;23.45;18.23;;;15.80;99.90;;;;;;5018800;28;20504;-59
2022/09/11 00:54:42;;;;;;;26.52;19.48;;;15.90;99.90;;;;;;5017130;28;20038;-58
2022/09/11 00:57:08;;;;;;;21.15;17.40;;;15.80;99.90;;;;;;5022389;28;20055;-59
2022/09/11 00:59:35;;;;;;;24.50;18.67;;;15.80;99.90;;;;;;5022185;28;20254;-58
2022/09/11 01:02:01;;;;;;;21.92;16.73;;;15.70;99.90;;;;;;5022956;28;20029;-58
2022/09/11 01:04:28;;;;;;;22.95;18.35;;;15.60;99.90;;;;;;5024801;28;20652;-58
2022/09/11 01:06:56;;;;;;;21.83;16.60;;;15.50;99.90;;;;;;5026695;28;20038;-58
2022/09/11 01:09:26;;;;;;;22.38;18.77;;;15.60;99.90;;;;;;5021933;28;20049;-59
2022/09/11 01:12:05;;;;;;;28.73;21.00;;;15.70;99.90;;;;;;5022033;28;20053;-58
2022/09/11 01:14:53;;;;;;;22.60;19.02;;;15.70;99.90;;;;;;5027312;28;20116;-57
2022/09/11 01:17:44;;;;;;;29.55;19.77;;;15.70;99.90;;;;;;5021540;28;20045;-59
2022/09/11 01:20:22;;;;;;;33.42;23.55;;;15.70;99.90;;;;;;5006978;28;20073;-57
2022/09/11 01:23:03;;;;;;;34.17;23.83;;;15.70;99.90;;;;;;5018145;28;20048;-59
2022/09/11 01:25:59;;;;;;;33.22;25.08;;;15.70;99.90;;;;;;5023780;28;20029;-59
2022/09/11 01:28:35;;;;;;;35.40;25.10;;;15.70;99.90;;;;;;5014767;28;20501;-58
2022/09/11 01:31:09;;;;;;;38.80;26.92;;;15.80;99.90;;;;;;5021492;28;20476;-58
2022/09/11 01:33:49;;;;;;;38.88;28.13;;;15.90;99.90;;;;;;5027445;28;20068;-58
2022/09/11 01:36:27;;;;;;;36.85;26.90;;;15.90;99.90;;;;;;5019389;28;20040;-58
2022/09/11 01:39:01;;;;;;;37.58;28.05;;;15.90;99.90;;;;;;5028095;28;20033;-58
2022/09/11 01:41:52;;;;;;;39.50;26.13;;;15.80;99.90;;;;;;5020192;28;20160;-58
2022/09/11 01:44:26;;;;;;;39.95;28.08;;;15.80;99.90;;;;;;5018048;28;20555;-58
2022/09/11 01:46:53;;;;;;;41.00;27.33;;;15.80;99.90;;;;;;5023647;28;20597;-58
2022/09/11 01:49:25;;;;;;;37.58;27.67;;;15.80;99.90;;;;;;5022666;28;20038;-58
2022/09/11 01:51:57;;;;;;;37.33;26.90;;;15.90;99.90;;;;;;5027943;28;20042;-57
2022/09/11 01:54:28;;;;;;;37.55;27.63;;;15.90;99.90;;;;;;5028904;28;20372;-58
2022/09/11 01:56:59;;;;;;;37.17;25.42;;;15.80;99.90;;;;;;5021941;28;20101;-57
2022/09/11 01:59:46;;;;;;;33.58;24.52;;;15.70;99.90;;;;;;5022715;28;20597;-58
2022/09/11 02:02:18;;;;;;;39.85;28.20;;;15.70;99.90;;;;;;5021877;28;20033;-59
2022/09/11 02:05:02;;;;;;;39.42;27.70;;;15.70;99.90;;;;;;5021564;28;20025;-58
2022/09/11 02:07:33;;;;;;;43.38;27.80;;;15.60;99.90;;;;;;5025047;28;20092;-59
2022/09/11 02:10:13;;;;;;;39.15;27.30;;;15.60;99.90;;;;;;5023913;28;20052;-58
2022/09/11 02:13:16;;;;;;;44.03;29.25;;;15.60;99.90;;;;;;5025760;28;20080;-58
2022/09/11 02:15:46;;;;;;;37.13;26.57;;;15.70;99.90;;;;;;4987598;28;20029;-58
2022/09/11 02:18:27;;;;;;;33.95;26.35;;;15.60;99.90;;;;;;5025227;28;20068;-57
2022/09/11 02:20:53;;;;;;;37.30;27.42;;;15.60;99.90;;;;;;5026072;28;20112;-59
2022/09/11 02:23:19;;;;;;;36.90;26.27;;;15.70;99.90;;;;;;5023759;28;20050;-58
2022/09/11 02:25:46;;;;;;;38.90;25.55;;;15.70;99.90;;;;;;5028810;28;20034;-58
2022/09/11 02:28:12;;;;;;;42.08;29.02;;;15.90;99.90;;;;;;5027456;28;20051;-58
2022/09/11 02:30:40;;;;;;;38.80;29.02;;;15.90;99.90;;;;;;5022365;28;20493;-58
2022/09/11 02:33:26;;;;;;;42.60;30.25;;;15.90;99.90;;;;;;5015221;28;20520;-58
2022/09/11 02:35:57;;;;;;;39.33;28.98;;;15.90;99.90;;;;;;5022845;28;20030;-58
2022/09/11 02:38:38;;;;;;;42.10;28.90;;;15.90;99.90;;;;;;5021044;28;20040;-59
2022/09/11 02:41:14;;;;;;;49.10;31.85;;;15.80;99.90;;;;;;5033558;28;20366;-59
2022/09/11 02:44:05;;;;;;;44.78;31.00;;;15.90;99.90;;;;;;5022460;28;20029;-59
2022/09/11 02:46:42;;;;;;;49.70;33.47;;;15.70;99.90;;;;;;5025437;28;20056;-58
2022/09/11 02:49:30;;;;;;;48.70;32.72;;;15.80;99.90;;;;;;5021115;28;20041;-58
2022/09/11 02:52:17;;;;;;;47.80;33.05;;;15.80;99.90;;;;;;5007544;28;20586;-58
2022/09/11 02:55:02;;;;;;;45.40;30.88;;;15.80;99.90;;;;;;5021860;28;20064;-58
2022/09/11 02:57:38;;;;;;;48.45;32.88;;;15.80;99.90;;;;;;5026404;28;20497;-58
2022/09/11 03:00:07;;;;;;;50.55;32.60;;;15.90;99.90;;;;;;5019751;28;20030;-58
2022/09/11 03:02:37;;;;;;;52.90;33.42;;;16.00;99.90;;;;;;5022367;28;20518;-59
2022/09/11 03:05:03;;;;;;;54.30;36.05;;;16.00;99.90;;;;;;5020481;28;20034;-58
2022/09/11 03:07:29;;;;;;;53.40;35.22;;;15.90;99.90;;;;;;5019387;28;20053;-58
2022/09/11 03:09:55;;;;;;;51.88;35.42;;;16.00;99.90;;;;;;5023302;28;20071;-58
2022/09/11 03:12:21;;;;;;;56.90;35.72;;;15.80;99.90;;;;;;5023573;28;20326;-58
2022/09/11 03:14:48;;;;;;;56.05;34.92;;;15.90;99.90;;;;;;5024450;28;20053;-57
2022/09/11 03:17:13;;;;;;;62.78;39.00;;;16.00;99.90;;;;;;5023566;28;20057;-59
2022/09/11 03:19:39;;;;;;;65.90;39.45;;;15.90;99.90;;;;;;5023448;28;20072;-58
2022/09/11 03:22:05;;;;;;;71.53;40.92;;;16.00;99.90;;;;;;5019407;28;20041;-58
2022/09/11 03:24:30;;;;;;;72.10;42.58;;;16.30;99.90;;;;;;5025351;28;20029;-58
2022/09/11 03:26:56;;;;;;;75.93;42.47;;;16.30;99.90;;;;;;5023500;28;20037;-58
2022/09/11 03:29:21;;;;;;;80.32;45.58;;;16.30;99.90;;;;;;5023265;28;20036;-58
2022/09/11 03:31:48;;;;;;;77.70;44.38;;;16.20;99.90;;;;;;5019659;28;20128;-58
2022/09/11 03:34:13;;;;;;;77.85;44.63;;;16.00;99.90;;;;;;5020392;28;20033;-58
2022/09/11 03:36:39;;;;;;;73.47;42.30;;;15.70;99.90;;;;;;5020412;28;20033;-58
2022/09/11 03:39:05;;;;;;;75.13;43.25;;;15.80;99.90;;;;;;5018928;28;20026;-57
2022/09/11 03:41:31;;;;;;;73.90;42.78;;;15.70;99.90;;;;;;5032289;28;20136;-58
2022/09/11 03:43:57;;;;;;;75.45;43.40;;;15.80;99.90;;;;;;5024504;28;20120;-58
2022/09/11 03:46:23;;;;;;;85.18;45.92;;;15.80;99.90;;;;;;5016477;28;20033;-57
2022/09/11 03:48:49;;;;;;;82.95;44.95;;;15.60;99.90;;;;;;5021730;28;20123;-57
2022/09/11 03:51:16;;;;;;;84.78;45.33;;;15.70;99.90;;;;;;5026363;28;20029;-59
2022/09/11 03:53:43;;;;;;;85.18;44.22;;;15.50;99.90;;;;;;5027586;28;20061;-57
2022/09/11 03:56:09;;;;;;;85.43;45.33;;;15.50;99.90;;;;;;5028919;28;20117;-58
2022/09/11 03:58:34;;;;;;;88.82;46.70;;;15.60;99.90;;;;;;5023435;28;20492;-59
2022/09/11 04:01:00;;;;;;;86.68;47.25;;;15.60;99.90;;;;;;5020851;28;20056;-58
2022/09/11 04:03:26;;;;;;;88.88;46.50;;;15.50;99.90;;;;;;5005035;28;20072;-57
2022/09/11 04:05:57;;;;;;;86.93;47.10;;;15.50;99.90;;;;;;5020932;28;20033;-57
2022/09/11 04:08:23;;;;;;;87.30;45.38;;;15.60;99.90;;;;;;5020573;28;20045;-58
2022/09/11 04:10:54;;;;;;;107.20;45.50;;;15.50;99.90;;;;;;5029254;28;21432;-58
2022/09/11 04:13:20;;;;;;;83.97;46.22;;;15.50;99.90;;;;;;5017772;28;20049;-59
2022/09/11 04:15:45;;;;;;;94.97;46.42;;;15.60;99.90;;;;;;5021361;28;20459;-58
2022/09/11 04:18:11;;;;;;;86.95;46.05;;;15.50;99.90;;;;;;5020630;28;20029;-59
2022/09/11 04:20:39;;;;;;;93.60;47.17;;;15.40;99.90;;;;;;5024824;28;20029;-57
2022/09/11 04:23:05;;;;;;;84.18;45.70;;;15.30;99.90;;;;;;5027082;28;20674;-58
2022/09/11 04:25:31;;;;;;;93.10;45.78;;;15.40;99.90;;;;;;5022929;28;20045;-58
2022/09/11 04:27:56;;;;;;;86.30;46.85;;;15.20;99.90;;;;;;5023476;28;20103;-58
2022/09/11 04:30:22;;;;;;;84.70;45.90;;;15.40;99.90;;;;;;5028068;28;20033;-59
2022/09/11 04:32:49;;;;;;;84.60;44.47;;;15.40;99.90;;;;;;5024801;28;20026;-58
2022/09/11 04:35:15;;;;;;;89.00;46.88;;;15.50;99.90;;;;;;5023686;28;20060;-59
2022/09/11 04:37:40;;;;;;;108.72;48.47;;;15.70;99.90;;;;;;5022177;28;20061;-58
2022/09/11 04:40:08;;;;;;;99.28;46.55;;;15.60;99.90;;;;;;4998728;28;20030;-58
2022/09/11 04:42:34;;;;;;;74.88;43.50;;;15.40;99.90;;;;;;5019887;28;20114;-58
2022/09/11 04:44:59;;;;;;;81.10;43.80;;;15.20;99.90;;;;;;5015106;28;20034;-58
2022/09/11 04:47:25;;;;;;;83.47;45.78;;;15.40;99.90;;;;;;5016424;28;20084;-57
2022/09/11 04:49:51;;;;;;;88.45;45.63;;;15.50;99.90;;;;;;5023217;28;20051;-58
2022/09/11 04:52:17;;;;;;;87.95;45.00;;;15.50;99.90;;;;;;5017771;28;20042;-58
2022/09/11 04:54:42;;;;;;;75.05;43.13;;;15.30;99.90;;;;;;5024716;28;20076;-59
2022/09/11 04:57:08;;;;;;;78.75;44.13;;;15.20;99.90;;;;;;5025347;28;20038;-58
2022/09/11 04:59:34;;;;;;;88.85;46.55;;;15.30;99.90;;;;;;5018809;28;20601;-58
2022/09/11 05:02:00;;;;;;;99.55;46.92;;;15.40;99.90;;;;;;5018939;28;20489;-58
2022/09/11 05:04:25;;;;;;;91.90;47.38;;;15.60;99.90;;;;;;5020011;28;20037;-58
2022/09/11 05:06:51;;;;;;;86.05;47.22;;;15.50;99.90;;;;;;5027267;28;20037;-58
2022/09/11 05:09:18;;;;;;;84.22;46.08;;;15.60;99.90;;;;;;5020982;28;20033;-57
2022/09/11 05:11:43;;;;;;;94.65;45.97;;;15.40;99.90;;;;;;5021126;28;20069;-58
2022/09/11 05:14:10;;;;;;;86.43;46.65;;;15.30;99.90;;;;;;5021262;28;20057;-58
2022/09/11 05:16:36;;;;;;;89.95;45.28;;;15.40;99.90;;;;;;5021730;28;20040;-58
2022/09/11 05:19:03;;;;;;;87.78;42.72;;;15.30;99.90;;;;;;5024733;28;20065;-59
2022/09/11 05:21:30;;;;;;;75.38;42.25;;;15.20;99.90;;;;;;5018869;28;20037;-58
2022/09/11 05:23:58;;;;;;;85.88;44.90;;;15.30;99.90;;;;;;5021648;28;20500;-59
2022/09/11 05:26:26;;;;;;;80.43;44.45;;;15.40;99.90;;;;;;5019624;28;20473;-58
2022/09/11 05:29:04;;;;;;;78.22;44.00;;;15.40;99.90;;;;;;5025473;28;20132;-58
2022/09/11 05:31:30;;;;;;;101.80;45.05;;;15.50;99.90;;;;;;5025119;28;20049;-57
2022/09/11 05:33:57;;;;;;;68.72;41.20;;;15.20;99.90;;;;;;5021595;28;20071;-59
2022/09/11 05:36:24;;;;;;;78.93;43.88;;;15.20;99.90;;;;;;5024930;28;20049;-58
2022/09/11 05:38:49;;;;;;;80.15;43.55;;;15.20;99.90;;;;;;5026296;28;20120;-58
2022/09/11 05:41:16;;;;;;;78.05;42.78;;;15.20;99.90;;;;;;5018129;28;20132;-59
2022/09/11 05:43:42;;;;;;;72.75;42.15;;;15.20;99.90;;;;;;5019820;28;20044;-59
2022/09/11 05:46:11;;;;;;;96.10;44.53;;;15.30;99.90;;;;;;5012574;28;20029;-58
2022/09/11 05:48:37;;;;;;;79.05;43.72;;;15.20;99.90;;;;;;5022281;28;20103;-58
2022/09/11 05:51:09;;;;;;;101.10;46.53;;;15.20;99.90;;;;;;5026280;28;20033;-57
2022/09/11 05:53:35;;;;;;;88.80;45.38;;;15.30;99.90;;;;;;5025349;28;20037;-58
2022/09/11 05:56:14;;;;;;;97.35;46.85;;;15.20;99.90;;;;;;5026810;28;20034;-58
2022/09/11 05:58:40;;;;;;;96.57;46.78;;;15.50;99.90;;;;;;5023782;28;20047;-59
2022/09/11 06:01:12;;;;;;;100.15;46.15;;;15.70;99.90;;;;;;5022225;28;20033;-57
2022/09/11 06:03:38;;;;;;;89.75;45.75;;;15.60;99.90;;;;;;5023187;28;20049;-59
2022/09/11 06:06:06;;;;;;;106.78;45.72;;;15.60;99.90;;;;;;5008435;28;20049;-59
2022/09/11 06:08:33;;;;;;;96.18;45.47;;;15.40;99.90;;;;;;5023275;28;20400;-58
2022/09/11 06:11:01;;;;;;;85.85;43.28;;;15.30;99.90;;;;;;5025330;28;20485;-59
2022/09/11 06:13:32;;;;;;;80.82;42.80;;;15.30;99.90;;;;;;5023416;28;20104;-58
2022/09/11 06:15:59;;;;;;;74.50;38.78;;;15.20;99.90;;;;;;5030902;28;20037;-57
2022/09/11 06:18:25;;;;;;;72.50;40.30;;;15.30;99.90;;;;;;5022582;28;20533;-58
2022/09/11 06:20:57;;;;;;;77.80;40.95;;;15.30;99.90;;;;;;5029214;28;20037;-58
2022/09/11 06:23:23;;;;;;;74.20;41.17;;;15.30;99.90;;;;;;5024093;28;20496;-57
2022/09/11 06:25:49;;;;;;;77.40;41.17;;;15.50;99.90;;;;;;5026156;28;20091;-59
2022/09/11 06:28:14;;;;;;;72.35;40.40;;;15.50;99.90;;;;;;5025540;28;20033;-58
2022/09/11 06:30:40;;;;;;;66.28;38.70;;;15.50;99.90;;;;;;5021570;28;20040;-58
2022/09/11 06:33:06;;;;;;;76.45;38.72;;;15.40;99.90;;;;;;5022886;28;20235;-58
2022/09/11 06:35:32;;;;;;;67.30;37.72;;;15.50;99.90;;;;;;5022733;28;20030;-58
2022/09/11 06:37:57;;;;;;;64.53;38.33;;;15.40;99.90;;;;;;5026577;28;20026;-58
2022/09/11 06:40:23;;;;;;;70.82;38.60;;;15.20;99.90;;;;;;5029393;28;20029;-58
2022/09/11 06:42:50;;;;;;;73.03;39.58;;;15.20;99.90;;;;;;5027524;28;20033;-59
2022/09/11 06:45:16;;;;;;;66.88;39.40;;;15.10;99.90;;;;;;4997843;28;20053;-58
2022/09/11 06:47:42;;;;;;;72.05;39.90;;;15.20;99.90;;;;;;5017383;28;20033;-58
2022/09/11 06:50:07;;;;;;;75.00;39.90;;;15.50;99.90;;;;;;5024628;28;20431;-59
2022/09/11 06:52:36;;;;;;;75.63;41.63;;;15.60;99.90;;;;;;5022741;28;20033;-59
2022/09/11 06:55:03;;;;;;;71.60;42.35;;;15.60;99.90;;;;;;5023756;28;20103;-59
2022/09/11 06:57:28;;;;;;;72.28;40.55;;;15.70;99.90;;;;;;5023408;28;20068;-58
2022/09/11 06:59:56;;;;;;;77.43;39.38;;;15.60;99.90;;;;;;5022197;28;20069;-58
2022/09/11 07:02:23;;;;;;;83.85;41.75;;;15.60;99.90;;;;;;5021534;28;20175;-58
2022/09/11 07:04:48;;;;;;;79.20;41.67;;;15.90;99.90;;;;;;5026733;28;20558;-58
2022/09/11 07:07:14;;;;;;;76.15;42.17;;;15.40;99.90;;;;;;5023868;28;20032;-58
2022/09/11 07:09:39;;;;;;;93.25;43.53;;;15.60;99.90;;;;;;5018668;28;20051;-58
2022/09/11 07:12:05;;;;;;;79.15;42.85;;;15.70;99.90;;;;;;5023157;28;20041;-58
2022/09/11 07:14:31;;;;;;;82.68;42.08;;;15.70;99.90;;;;;;5025073;28;20029;-57
2022/09/11 07:16:57;;;;;;;79.05;41.25;;;15.70;99.90;;;;;;5023812;28;20408;-58
2022/09/11 07:19:26;;;;;;;81.22;43.10;;;15.80;99.90;;;;;;5018568;28;20029;-58
2022/09/11 07:21:52;;;;;;;77.55;41.83;;;15.90;99.90;;;;;;5024067;28;20033;-58
2022/09/11 07:24:17;;;;;;;80.40;44.05;;;16.00;99.90;;;;;;5004694;28;20087;-58
2022/09/11 07:26:43;;;;;;;77.05;42.08;;;16.10;99.90;;;;;;5023629;28;20129;-59
2022/09/11 07:29:11;;;;;;;75.45;42.53;;;16.20;99.90;;;;;;5016345;28;20037;-58
2022/09/11 07:31:37;;;;;;;85.30;42.88;;;16.20;99.90;;;;;;5022974;28;20042;-58
2022/09/11 07:34:03;;;;;;;86.20;43.88;;;16.30;99.90;;;;;;5013666;28;20033;-59
2022/09/11 07:36:32;;;;;;;76.30;42.20;;;16.50;99.90;;;;;;5018629;28;20032;-59
2022/09/11 07:38:58;;;;;;;78.70;42.63;;;16.40;99.90;;;;;;5019136;28;20436;-59
2022/09/11 07:41:25;;;;;;;84.57;43.42;;;16.60;99.90;;;;;;5018433;28;20480;-59
2022/09/11 07:43:53;;;;;;;72.18;39.92;;;16.50;99.90;;;;;;5019202;28;20095;-59
2022/09/11 07:46:18;;;;;;;78.80;41.70;;;16.30;99.90;;;;;;5020706;28;20795;-59
2022/09/11 07:48:44;;;;;;;73.90;40.72;;;16.30;99.90;;;;;;5020161;28;20128;-57
2022/09/11 07:51:12;;;;;;;68.38;39.28;;;16.20;99.90;;;;;;5015384;28;20030;-59
2022/09/11 07:53:40;;;;;;;74.88;40.33;;;16.20;99.90;;;;;;5026076;28;20033;-59
2022/09/11 07:56:09;;;;;;;72.15;40.90;;;16.40;99.90;;;;;;5024446;28;20025;-59
2022/09/11 07:58:39;;;;;;;80.65;40.85;;;16.40;99.90;;;;;;5025477;28;20065;-58
2022/09/11 08:01:07;;;;;;;77.13;41.00;;;16.60;99.90;;;;;;5021380;28;20030;-59
2022/09/11 08:03:34;;;;;;;74.15;40.20;;;16.60;99.90;;;;;;5019782;28;20137;-59
2022/09/11 08:06:02;;;;;;;80.28;41.35;;;16.50;99.90;;;;;;5022613;28;20045;-59
2022/09/11 08:08:29;;;;;;;73.03;39.67;;;16.40;99.90;;;;;;5019230;28;20543;-58
2022/09/11 08:11:12;;;;;;;75.43;40.17;;;16.60;99.90;;;;;;5024868;28;20539;-59
2022/09/11 08:13:38;;;;;;;73.38;39.03;;;16.40;99.90;;;;;;5025037;28;20116;-59
2022/09/11 08:16:05;;;;;;;78.78;40.88;;;16.50;99.90;;;;;;5015408;28;20121;-59
2022/09/11 08:18:31;;;;;;;86.32;43.17;;;16.60;99.90;;;;;;5018462;28;20103;-59
2022/09/11 08:21:07;;;;;;;79.18;41.42;;;16.70;99.90;;;;;;5024872;28;20357;-59
2022/09/11 08:23:33;;;;;;;91.10;43.17;;;16.80;99.90;;;;;;5027666;28;20025;-58
2022/09/11 08:26:29;;;;;;;95.43;45.35;;;16.70;99.90;;;;;;5007176;28;20047;-59
2022/09/11 08:28:58;;;;;;;97.78;45.50;;;16.90;99.90;;;;;;5028371;28;20632;-58
2022/09/11 08:31:26;;;;;;;92.90;45.85;;;17.00;99.90;;;;;;5022814;28;20112;-59
2022/09/11 08:33:53;;;;;;;103.65;47.17;;;16.90;99.90;;;;;;5015219;28;20500;-59
2022/09/11 08:36:18;;;;;;;96.57;46.58;;;16.90;99.90;;;;;;5019367;28;20041;-59
2022/09/11 08:38:45;;;;;;;96.93;46.05;;;17.00;99.90;;;;;;5021855;28;20037;-58
2022/09/11 08:41:13;;;;;;;87.90;44.42;;;16.70;99.90;;;;;;5021404;28;20035;-58
2022/09/11 08:43:50;;;;;;;78.03;41.53;;;16.30;99.90;;;;;;5021917;28;20045;-59
2022/09/11 08:46:20;;;;;;;81.82;42.95;;;16.30;99.90;;;;;;5017342;28;20042;-59
2022/09/11 08:48:56;;;;;;;80.05;42.50;;;16.30;99.90;;;;;;5021391;28;20037;-58
2022/09/11 08:51:24;;;;;;;80.88;40.75;;;16.40;99.90;;;;;;5016507;28;20075;-59
2022/09/11 08:53:53;;;;;;;74.68;39.33;;;16.50;99.90;;;;;;5020034;28;20456;-59
2022/09/11 08:56:22;;;;;;;75.63;40.65;;;16.60;99.90;;;;;;5014680;28;20160;-59
2022/09/11 08:59:01;;;;;;;84.40;43.20;;;16.70;99.90;;;;;;5020146;28;20026;-59
2022/09/11 09:01:27;;;;;;;87.80;43.20;;;16.80;99.90;;;;;;5016011;28;20029;-58
2022/09/11 09:04:20;;;;;;;91.47;44.90;;;16.90;99.90;;;;;;5020126;28;20037;-59
2022/09/11 09:07:13;;;;;;;80.82;42.20;;;16.90;99.90;;;;;;5021032;28;20140;-59
2022/09/11 09:10:14;;;;;;;88.33;43.47;;;16.70;99.90;;;;;;5021290;28;20048;-59
2022/09/11 09:12:39;;;;;;;76.80;41.17;;;16.80;99.90;;;;;;5021711;28;20579;-59
2022/09/11 09:15:32;;;;;;;70.45;39.17;;;16.70;99.90;;;;;;5019540;28;20040;-59
2022/09/11 09:18:06;;;;;;;67.55;36.88;;;16.50;99.90;;;;;;5002489;28;20040;-59
2022/09/11 09:20:39;;;;;;;68.10;38.65;;;16.20;99.90;;;;;;5020937;28;20759;-59
2022/09/11 09:23:14;;;;;;;;;;;16.50;99.90;;;;;;5025567;28;20037;-59
2022/09/11 09:25:41;;;;;;;59.85;34.65;;;16.60;99.90;;;;;;5022001;28;20038;-59
2022/09/11 09:28:36;;;;;;;61.15;35.38;;;16.70;99.90;;;;;;5024618;28;20448;-60
2022/09/11 09:31:06;;;;;;;55.63;33.67;;;16.80;99.90;;;;;;5024240;28;20061;-59
2022/09/11 09:33:52;;;;;;;59.10;35.00;;;16.70;99.90;;;;;;5023588;28;20060;-59
2022/09/11 09:36:25;;;;;;;59.38;36.05;;;17.00;99.90;;;;;;5023291;28;20128;-59
2022/09/11 09:38:52;;;;;;;59.05;36.15;;;17.10;99.90;;;;;;5027168;28;20037;-59
2022/09/11 09:41:48;;;;;;;69.55;39.22;;;17.00;99.90;;;;;;5020447;28;20041;-59
2022/09/11 09:44:28;;;;;;;67.97;38.13;;;17.20;99.90;;;;;;5017661;28;20550;-59
2022/09/11 09:46:55;;;;;;;67.57;39.13;;;17.20;99.90;;;;;;5019072;28;20026;-59
2022/09/11 09:49:30;;;;;;;70.82;38.50;;;17.20;99.90;;;;;;5017927;28;20412;-58
2022/09/11 09:51:59;;;;;;;66.07;38.17;;;17.30;99.90;;;;;;5021660;28;20033;-60
2022/09/11 09:54:28;;;;;;;66.72;38.03;;;17.20;99.90;;;;;;5024988;28;20428;-59
2022/09/11 09:57:06;;;;;;;63.25;37.03;;;17.30;99.90;;;;;;5022397;28;20030;-59
2022/09/11 09:59:41;;;;;;;68.50;38.33;;;16.90;99.90;;;;;;5018393;28;20040;-59
2022/09/11 10:02:07;;;;;;;59.83;36.90;;;17.00;99.90;;;;;;5020050;28;20030;-59
2022/09/11 10:04:33;;;;;;;54.40;34.72;;;17.00;99.90;;;;;;5021324;28;20043;-59
2022/09/11 10:07:21;;;;;;;59.72;35.30;;;17.10;99.90;;;;;;5023533;28;20064;-59
2022/09/11 10:09:50;;;;;;;59.13;36.08;;;17.30;99.90;;;;;;5022426;28;20052;-60
2022/09/11 10:12:20;;;;;;;53.05;33.60;;;17.30;99.90;;;;;;5023910;28;20076;-59
2022/09/11 10:15:00;;;;;;;55.17;34.25;;;17.20;99.90;;;;;;5024490;28;20030;-60
2022/09/11 10:17:32;;;;;;;57.20;34.33;;;17.30;99.90;;;;;;5023138;28;20114;-59
2022/09/11 10:20:18;;;;;;;60.63;35.95;;;17.60;99.90;;;;;;5019924;28;20535;-60
2022/09/11 10:22:45;;;;;;;59.70;37.30;;;17.50;99.90;;;;;;5021407;28;20444;-59
2022/09/11 10:25:14;;;;;;;66.20;38.80;;;17.60;99.90;;;;;;5021539;28;20172;-59
2022/09/11 10:27:58;;;;;;;57.20;34.20;;;17.80;99.90;;;;;;5025622;28;20111;-59
2022/09/11 10:30:33;;;;;;;58.47;35.67;;;17.50;99.90;;;;;;5001005;28;20060;-59
2022/09/11 10:33:03;;;;;;;64.13;37.22;;;17.60;99.90;;;;;;5017719;28;20567;-59
2022/09/11 10:35:31;;;;;;;67.15;37.63;;;17.90;99.90;;;;;;5022508;28;20477;-59
2022/09/11 10:38:11;;;;;;;66.18;38.97;;;18.20;99.90;;;;;;5020865;28;20429;-59
2022/09/11 10:40:38;;;;;;;59.22;36.25;;;18.30;99.90;;;;;;5025689;28;20080;-59
2022/09/11 10:43:07;;;;;;;63.28;35.92;;;18.40;99.90;;;;;;5020605;28;20492;-59
2022/09/11 10:45:32;;;;;;;62.88;36.75;;;18.60;99.90;;;;;;5008211;28;20412;-59
2022/09/11 10:48:14;;;;;;;59.38;35.95;;;18.60;99.90;;;;;;5013394;28;20091;-59
2022/09/11 10:50:40;;;;;;;54.97;34.92;;;18.70;99.90;;;;;;5020209;28;20030;-59
2022/09/11 10:53:15;;;;;;;56.72;32.80;;;18.70;99.90;;;;;;5015719;28;20069;-59
2022/09/11 10:55:57;;;;;;;55.80;33.47;;;18.90;99.90;;;;;;5019438;28;20147;-59
2022/09/11 10:58:27;;;;;;;50.40;30.90;;;18.80;99.90;;;;;;5021302;28;20489;-59
2022/09/11 11:00:53;;;;;;;50.30;31.58;;;18.40;99.90;;;;;;5018848;28;20029;-59
2022/09/11 11:03:23;;;;;;;52.78;31.75;;;18.00;99.90;;;;;;5016989;28;20037;-59
2022/09/11 11:05:51;;;;;;;44.25;29.17;;;18.30;99.90;;;;;;5011682;28;20026;-59
2022/09/11 11:08:38;;;;;;;43.88;29.33;;;18.10;99.90;;;;;;4999449;28;20087;-58
2022/09/11 11:11:32;;;;;;;54.13;32.15;;;18.30;99.90;;;;;;4998440;28;20018;-59
2022/09/11 11:14:36;;;;;;;51.67;33.17;;;18.70;99.90;;;;;;5016548;28;20392;-59
2022/09/11 11:17:11;;;;;;;;;;;19.10;99.90;;;;;;5021571;28;20033;-59
2022/09/11 11:19:49;;;;;;;40.15;25.63;;;19.00;99.90;;;;;;5020952;28;19967;-59
2022/09/11 11:22:20;;;;;;;37.67;24.08;;;18.50;99.90;;;;;;5021315;28;20045;-59
2022/09/11 11:25:15;;;;;;;39.25;26.48;;;18.30;99.90;;;;;;5023831;28;20054;-59
2022/09/11 11:28:10;;;;;;;37.85;25.67;;;18.30;99.90;;;;;;5019589;28;20614;-59
2022/09/11 11:31:08;;;;;;;36.53;24.20;;;18.60;99.90;;;;;;5018177;28;20044;-59
2022/09/11 11:34:11;;;;;;;32.33;23.52;;;18.50;99.90;;;;;;4992979;28;20072;-59
2022/09/11 11:36:46;;;;;;;36.80;25.93;;;18.30;99.90;;;;;;5022230;28;20034;-59
2022/09/11 11:39:17;;;;;;;31.90;22.02;;;18.50;99.90;;;;;;5024516;28;20025;-59
2022/09/11 11:41:49;;;;;;;33.72;23.13;;;18.70;99.90;;;;;;5016850;28;20037;-59
2022/09/11 11:44:26;;;;;;;33.70;23.05;;;18.80;99.90;;;;;;5023293;28;20026;-59
2022/09/11 11:46:56;;;;;;;32.42;20.65;;;19.10;99.90;;;;;;5020226;28;20049;-59
2022/09/11 11:49:51;;;;;;;30.35;21.38;;;19.20;99.90;;;;;;5021509;28;20136;-59
2022/09/11 11:52:36;;;;;;;27.88;21.02;;;19.00;99.90;;;;;;5022073;28;20041;-59
2022/09/11 11:55:19;;;;;;;33.13;22.30;;;18.90;99.90;;;;;;5012645;28;20524;-59
2022/09/11 11:58:27;;;;;;;32.42;24.20;;;19.30;99.90;;;;;;5025875;28;20060;-59
2022/09/11 12:00:59;;;;;;;28.83;21.95;;;19.40;99.90;;;;;;5019878;28;20479;-59
2022/09/11 12:03:34;;;;;;;30.33;20.83;;;19.20;99.90;;;;;;5013538;28;20044;-58
2022/09/11 12:06:01;;;;;;;30.55;21.15;;;19.20;99.90;;;;;;5023558;28;20388;-60
2022/09/11 12:08:27;;;;;;;28.40;20.83;;;19.30;99.90;;;;;;5025649;28;20045;-59
2022/09/11 12:11:03;;;;;;;33.15;24.08;;;19.30;99.90;;;;;;5023363;28;20043;-59
2022/09/11 12:13:32;;;;;;;34.10;24.40;;;19.40;99.90;;;;;;5017802;28;20761;-57
2022/09/11 12:16:24;;;;;;;30.70;21.27;;;19.60;99.90;;;;;;5024554;28;20045;-59
2022/09/11 12:19:14;;;;;;;33.42;23.10;;;19.50;99.90;;;;;;5018932;28;20084;-59
2022/09/11 12:22:04;;;;;;;32.95;25.27;;;19.40;99.90;;;;;;5019554;28;20037;-59
2022/09/11 12:24:54;;;;;;;35.97;25.15;;;19.40;99.90;;;;;;5006366;28;20042;-59
2022/09/11 12:27:35;;;;;;;33.20;23.05;;;19.50;99.90;;;;;;5020080;28;20073;-59
2022/09/11 12:30:17;;;;;;;33.28;24.35;;;19.60;99.90;;;;;;5018936;28;20037;-59
2022/09/11 12:32:52;;;;;;;33.63;22.33;;;19.70;99.90;;;;;;5018802;28;20045;-59
2022/09/11 12:35:23;;;;;;;35.28;22.95;;;19.80;99.90;;;;;;5019438;28;20532;-59
2022/09/11 12:38:01;;;;;;;30.83;22.88;;;19.70;99.90;;;;;;5022321;28;20820;-59
2022/09/11 12:40:40;;;;;;;31.92;23.23;;;19.60;99.90;;;;;;5025257;28;20060;-59
2022/09/11 12:43:17;;;;;;;27.23;20.88;;;19.70;99.90;;;;;;5018885;28;20083;-59
2022/09/11 12:45:46;;;;;;;27.05;20.00;;;19.60;99.90;;;;;;5020060;28;20039;-59
2022/09/11 12:48:19;;;;;;;26.33;20.35;;;19.60;99.90;;;;;;5019081;28;20044;-59
2022/09/11 12:50:49;;;;;;;26.73;19.50;;;19.60;99.90;;;;;;5020960;28;20124;-59
2022/09/11 12:53:21;;;;;;;24.75;18.05;;;19.50;99.90;;;;;;5017096;28;20041;-60